Time;durP1;ratioP1;P1;durP2;ratioP2;P2;SDS_P1;SDS_P2;PMS_P1;PMS_P2;Temp;Humidity;BMP_temperature;BMP_pressure;BME280_temperature;BME280_humidity;BME280_pressure;Samples;Min_cycle;Max_cycle;Signal;HPM_P1;HPM_P2
2022/05/20 00:00:39;;;;;;;12.82;5.72;;;;;;;14.42;74.69;102289.81;5015490;28;96724;-34
2022/05/20 00:03:05;;;;;;;13.20;5.40;;;;;;;14.42;75.21;102296.13;4997310;28;96804;-34
2022/05/20 00:05:31;;;;;;;11.00;5.30;;;;;;;14.39;75.03;102299.00;4996843;28;100858;-34
2022/05/20 00:07:56;;;;;;;10.18;4.45;;;;;;;14.32;75.07;102283.06;5015206;28;99401;-34
2022/05/20 00:10:22;;;;;;;11.95;5.60;;;;;;;14.37;75.96;102291.88;5014048;28;96697;-34
2022/05/20 00:12:49;;;;;;;9.10;4.78;;;;;;;14.40;75.35;102300.78;5014666;28;97002;-34
2022/05/20 00:15:17;;;;;;;9.57;5.50;;;;;;;14.37;75.43;102294.59;4996240;28;100530;-34
2022/05/20 00:17:43;;;;;;;13.30;5.70;;;;;;;14.35;75.07;102305.59;5000636;28;100786;-34
2022/05/20 00:20:11;;;;;;;21.02;5.13;;;;;;;14.30;75.08;102288.63;5016847;28;96678;-34
2022/05/20 00:22:36;;;;;;;12.15;4.95;;;;;;;14.27;75.57;102290.63;5033284;28;96912;-34
2022/05/20 00:27:46;;;;;;;10.77;5.57;;;;;;;14.26;75.43;102295.19;5034962;28;96993;-34
2022/05/20 00:30:12;;;;;;;10.93;5.80;;;;;;;14.21;75.63;102278.22;5035231;28;96804;-34
2022/05/20 00:32:37;;;;;;;11.88;5.45;;;;;;;14.23;75.56;102288.06;5035530;28;96907;-34
2022/05/20 00:35:03;;;;;;;11.75;5.38;;;;;;;14.22;76.12;102285.41;5034472;28;99368;-34
2022/05/20 00:37:29;;;;;;;11.65;6.00;;;;;;;14.23;75.91;102292.63;5016318;28;102097;-34
2022/05/20 00:39:54;;;;;;;16.00;6.38;;;;;;;14.17;75.59;102292.97;5033768;28;117975;-34
2022/05/20 00:42:20;;;;;;;11.77;6.00;;;;;;;14.10;75.90;102280.63;5033848;28;117676;-34
2022/05/20 00:44:46;;;;;;;18.58;7.43;;;;;;;14.17;75.65;102290.22;5016395;28;101320;-34
2022/05/20 00:47:13;;;;;;;14.02;5.80;;;;;;;14.12;75.51;102281.44;5034522;28;97747;-34
2022/05/20 00:49:43;;;;;;;13.93;6.00;;;;;;;14.06;75.80;102279.88;5033239;28;96640;-34
2022/05/20 00:52:12;;;;;;;13.57;5.78;;;;;;;14.13;75.80;102285.91;5033252;28;96816;-34
2022/05/20 00:54:47;;;;;;;11.48;5.40;;;;;;;14.14;75.79;102287.69;5034298;28;97277;-34
2022/05/20 00:57:17;;;;;;;8.73;4.82;;;;;;;14.13;75.61;102281.31;5034865;28;97781;-34
2022/05/20 00:59:49;;;;;;;12.02;5.93;;;;;;;14.11;75.70;102266.03;5034678;28;96721;-34
2022/05/20 01:02:17;;;;;;;;;;;;;;;14.14;76.14;102284.94;5033668;28;96609;-34
2022/05/20 01:04:43;;;;;;;10.52;4.50;;;;;;;14.08;76.41;102272.50;5033865;28;97450;-34
2022/05/20 01:07:09;;;;;;;14.68;6.10;;;;;;;14.10;76.26;102269.72;5032918;28;98927;-34
2022/05/20 01:09:36;;;;;;;14.02;5.72;;;;;;;14.14;76.17;102271.31;5033054;28;96623;-34
2022/05/20 01:12:02;;;;;;;10.00;5.03;;;;;;;14.08;76.13;102264.34;5016016;28;96940;-34
2022/05/20 01:14:27;;;;;;;10.45;6.05;;;;;;;14.10;75.80;102261.53;5016009;28;101275;-34
2022/05/20 01:16:53;;;;;;;14.18;5.80;;;;;;;14.00;76.14;102251.13;5034440;28;97280;-34
2022/05/20 01:19:40;;;;;;;11.48;5.68;;;;;;;14.06;76.32;102249.03;5016818;28;96561;-34
2022/05/20 01:22:09;;;;;;;11.95;5.60;;;;;;;14.01;75.97;102238.38;4998867;28;96730;-34
2022/05/20 01:24:34;;;;;;;12.35;6.07;;;;;;;14.01;76.15;102231.13;4999091;28;100958;-34
2022/05/20 01:27:00;;;;;;;14.02;5.65;;;;;;;14.01;75.67;102232.94;5017628;28;97832;-34
2022/05/20 01:29:26;;;;;;;17.83;6.38;;;;;;;14.01;76.22;102231.13;5016339;28;116689;-34
2022/05/20 01:31:52;;;;;;;13.45;5.03;;;;;;;14.01;76.40;102227.50;5017631;28;96823;-34
2022/05/20 01:34:17;;;;;;;13.05;6.13;;;;;;;13.97;76.60;102212.31;5017341;28;98309;-34
2022/05/20 01:36:42;;;;;;;14.65;6.22;;;;;;;14.01;76.23;102225.66;5032531;28;99716;-34
2022/05/20 01:39:07;;;;;;;13.25;6.15;;;;;;;13.98;76.49;102222.22;5016578;28;113562;-34
2022/05/20 01:41:42;;;;;;;14.13;5.88;;;;;;;13.98;76.44;102227.66;5016918;28;108069;-34
2022/05/20 01:44:18;;;;;;;13.48;6.15;;;;;;;13.94;77.16;102228.78;4998946;28;100955;-34
2022/05/20 01:47:03;;;;;;;13.60;5.50;;;;;;;13.91;76.80;102215.34;5017395;28;99477;-34
2022/05/20 01:49:31;;;;;;;11.70;4.53;;;;;;;13.91;76.80;102235.28;5017484;28;96470;-34
2022/05/20 01:52:31;;;;;;;15.88;5.35;;;;;;;13.87;77.28;102236.44;5017043;28;100975;-34
2022/05/20 01:55:22;;;;;;;11.50;5.28;;;;;;;13.88;76.84;102232.72;4998403;28;101488;-34
2022/05/20 01:58:08;;;;;;;10.82;5.07;;;;;;;13.78;77.15;102217.84;4998928;28;100728;-34
2022/05/20 02:00:34;;;;;;;16.17;4.88;;;;;;;13.80;76.85;102227.69;4999371;28;96736;-34
2022/05/20 02:03:14;;;;;;;10.73;5.13;;;;;;;13.83;76.47;102225.78;5015595;28;97884;-34
2022/05/20 02:05:47;;;;;;;17.58;6.30;;;;;;;13.78;76.67;102228.75;4998785;28;101010;-34
2022/05/20 02:08:21;;;;;;;10.75;4.75;;;;;;;13.73;77.02;102220.81;4998600;28;101048;-35
2022/05/20 02:10:54;;;;;;;9.48;4.85;;;;;;;13.73;77.20;102214.47;4998676;28;96585;-34
2022/05/20 02:13:20;;;;;;;11.35;5.13;;;;;;;13.72;77.05;102216.31;4999490;28;96719;-34
2022/05/20 02:15:58;;;;;;;11.27;5.88;;;;;;;13.76;77.18;102217.91;5016665;28;97603;-34
2022/05/20 02:18:39;;;;;;;11.38;5.63;;;;;;;13.74;76.74;102199.91;5007999;28;99561;-33
2022/05/20 02:21:16;;;;;;;10.13;5.03;;;;;;;13.79;77.36;102220.47;5052231;27;96634;-34
2022/05/20 02:23:46;;;;;;;11.90;5.65;;;;;;;13.73;76.85;102209.91;5035494;28;96886;-34
2022/05/20 02:26:15;;;;;;;11.63;4.88;;;;;;;13.75;76.75;102215.25;5035292;28;100706;-34
2022/05/20 02:28:44;;;;;;;10.13;5.50;;;;;;;13.76;77.43;102211.59;5036610;28;97882;-34
2022/05/20 02:31:16;;;;;;;12.15;5.80;;;;;;;13.78;77.34;102216.00;5018551;28;96732;-34
2022/05/20 02:33:42;;;;;;;12.70;5.28;;;;;;;13.70;76.66;102203.75;5051256;27;96869;-34
2022/05/20 02:36:17;;;;;;;10.90;5.60;;;;;;;13.69;76.96;102213.75;5036882;28;97397;-34
2022/05/20 02:38:42;;;;;;;15.38;5.47;;;;;;;13.65;77.08;102203.09;5018640;28;100741;-34
2022/05/20 02:41:08;;;;;;;13.50;5.60;;;;;;;13.65;77.32;102200.38;5035608;28;114759;-34
2022/05/20 02:43:34;;;;;;;15.45;6.25;;;;;;;13.63;77.41;102207.75;5035187;28;96806;-34
2022/05/20 02:46:00;;;;;;;11.80;5.55;;;;;;;13.68;77.90;102219.28;5017533;28;99537;-34
2022/05/20 02:48:25;;;;;;;15.13;6.80;;;;;;;13.65;78.37;102214.88;5036539;28;97291;-34
2022/05/20 02:50:51;;;;;;;16.98;7.60;;;;;;;13.65;77.55;102222.16;5036619;28;96431;-34
2022/05/20 02:53:17;;;;;;;17.42;7.72;;;;;;;13.65;77.45;102219.44;5036206;28;101740;-34
2022/05/20 02:55:42;;;;;;;12.73;7.15;;;;;;;13.65;78.15;102225.75;5017925;28;100977;-34
2022/05/20 02:58:08;;;;;;;19.90;8.52;;;;;;;13.63;77.43;102221.38;5036464;28;97563;-34
2022/05/20 03:06:01;;;;;;;13.75;7.55;;;;;;;13.58;78.41;102217.03;5036386;28;97117;-34
2022/05/20 03:08:26;;;;;;;16.17;7.93;;;;;;;13.50;77.94;102211.13;5036345;28;96662;-34
2022/05/20 03:10:51;;;;;;;14.98;7.45;;;;;;;13.63;77.20;102232.25;5035377;28;96733;-34
2022/05/20 03:13:18;;;;;;;13.80;6.43;;;;;;;13.61;77.42;102226.91;5035363;28;113382;-34
2022/05/20 03:15:44;;;;;;;16.23;7.32;;;;;;;13.55;77.50;102219.91;5034281;28;100914;-34
2022/05/20 03:18:11;;;;;;;16.58;7.00;;;;;;;13.63;77.88;102229.53;5017061;28;101011;-34
2022/05/20 03:20:38;;;;;;;17.58;7.35;;;;;;;13.54;77.72;102220.91;5034441;28;96845;-34
2022/05/20 03:23:05;;;;;;;13.75;6.28;;;;;;;13.57;77.69;102223.44;5017624;28;96895;-34
2022/05/20 03:25:30;;;;;;;16.73;7.47;;;;;;;13.55;77.81;102217.19;5017267;28;100884;-34
2022/05/20 03:27:55;;;;;;;17.05;7.00;;;;;;;13.57;77.78;102220.72;5036177;28;97807;-34
2022/05/20 03:30:21;;;;;;;15.98;7.43;;;;;;;13.52;78.46;102214.66;5035078;28;116882;-34
2022/05/20 03:32:46;;;;;;;13.85;7.10;;;;;;;13.53;77.85;102210.94;5036062;28;96778;-34
2022/05/20 03:35:12;;;;;;;17.25;7.68;;;;;;;13.52;77.82;102209.19;5035317;28;97867;-34
2022/05/20 03:37:49;;;;;;;19.33;8.98;;;;;;;13.54;78.31;102195.53;5035691;28;97771;-34
2022/05/20 03:40:24;;;;;;;14.90;7.65;;;;;;;13.56;78.02;102197.19;5035690;28;97442;-34
2022/05/20 03:42:49;;;;;;;19.70;8.43;;;;;;;13.52;77.63;102187.41;5035359;28;98781;-34
2022/05/20 03:45:14;;;;;;;14.43;7.20;;;;;;;13.48;78.06;102188.53;5035272;27;97878;-34
2022/05/20 03:47:40;;;;;;;18.17;8.00;;;;;;;13.53;78.01;102201.91;5035453;28;98000;-34
2022/05/20 03:50:05;;;;;;;15.02;8.18;;;;;;;13.52;78.32;102192.88;5035047;28;117066;-34
2022/05/20 03:52:30;;;;;;;21.25;8.48;;;;;;;13.49;78.18;102182.16;5036160;28;96802;-34
2022/05/20 03:54:56;;;;;;;15.50;7.75;;;;;;;13.50;77.88;102189.34;5035207;28;97900;-34
2022/05/20 03:57:21;;;;;;;21.88;8.30;;;;;;;13.47;78.39;102173.19;5035212;28;97779;-34
2022/05/20 03:59:47;;;;;;;18.23;8.05;;;;;;;13.47;78.27;102161.41;5034158;28;116384;-34
2022/05/20 04:02:13;;;;;;;15.00;7.93;;;;;;;13.45;78.35;102163.34;5035096;28;96853;-34
2022/05/20 04:04:49;;;;;;;19.25;8.40;;;;;;;13.46;78.59;102179.56;5016944;28;101002;-34
2022/05/20 04:07:26;;;;;;;18.13;8.43;;;;;;;13.45;78.12;102194.16;5033672;28;100740;-34
2022/05/20 04:09:52;;;;;;;19.40;9.02;;;;;;;13.40;79.00;102193.50;5035590;28;96574;-34
2022/05/20 04:12:38;;;;;;;20.55;8.43;;;;;;;13.36;79.34;102195.50;5016857;28;96906;-34
2022/05/20 04:15:08;;;;;;;13.98;8.07;;;;;;;13.36;78.76;102202.78;5016647;28;101351;-34
2022/05/20 04:17:33;;;;;;;15.88;8.75;;;;;;;13.23;79.10;102202.50;5033859;28;97874;-34
2022/05/20 04:19:58;;;;;;;15.10;7.85;;;;;;;13.23;79.54;102209.75;5014223;28;117290;-34
2022/05/20 04:22:31;;;;;;;15.70;7.82;;;;;;;13.22;79.03;102191.69;5014865;28;96830;-34
2022/05/20 04:24:57;;;;;;;21.00;8.98;;;;;;;13.28;78.88;102203.19;4996126;28;101836;-34
2022/05/20 04:27:23;;;;;;;16.55;7.88;;;;;;;13.30;79.32;102209.44;5014802;28;97668;-34
2022/05/20 04:29:48;;;;;;;14.98;8.50;;;;;;;13.29;78.29;102194.03;5014805;28;96470;-34
2022/05/20 04:32:14;;;;;;;24.27;8.70;;;;;;;13.34;78.44;102204.69;4996771;28;96824;-34
2022/05/20 04:34:39;;;;;;;24.80;8.90;;;;;;;13.40;78.68;102208.97;5014071;28;113018;-34
2022/05/20 04:37:05;;;;;;;20.35;9.57;;;;;;;13.37;79.61;102199.09;5013640;28;125209;-34
2022/05/20 04:39:30;;;;;;;19.75;9.80;;;;;;;13.44;78.83;102205.97;5014979;28;96460;-34
2022/05/20 04:47:28;;;;;;;25.17;11.07;;;;;;;13.43;80.82;102197.91;5014807;28;97027;-34
2022/05/20 04:49:53;;;;;;;25.45;11.18;;;;;;;13.43;81.46;102193.34;5012682;28;96729;-33
2022/05/20 04:52:20;;;;;;;30.70;12.85;;;;;;;13.41;81.73;102195.25;5014807;28;96916;-34
2022/05/20 04:54:49;;;;;;;34.63;13.20;;;;;;;13.44;80.76;102208.69;5014391;28;97900;-34
2022/05/20 04:57:41;;;;;;;27.23;11.30;;;;;;;13.51;82.13;102206.53;5015246;28;100922;-34
2022/05/20 05:00:09;;;;;;;32.33;13.43;;;;;;;13.57;80.38;102208.97;5018178;28;96543;-34
2022/05/20 05:02:34;;;;;;;30.75;13.15;;;;;;;13.59;79.37;102194.31;5016625;28;96846;-34
2022/05/20 05:05:00;;;;;;;27.33;11.70;;;;;;;13.61;81.60;102194.25;5017832;28;97640;-34
2022/05/20 05:07:25;;;;;;;34.78;13.50;;;;;;;13.66;80.31;102202.13;5017943;28;99763;-34
2022/05/20 05:09:53;;;;;;;40.08;13.95;;;;;;;13.71;81.46;102202.78;5017795;28;96598;-34
2022/05/20 05:12:18;;;;;;;31.65;12.88;;;;;;;13.68;80.45;102179.34;5017580;28;96932;-34
2022/05/20 05:14:48;;;;;;;40.90;14.27;;;;;;;13.83;81.31;102193.97;4998898;28;101582;-34
2022/05/20 05:17:16;;;;;;;32.97;13.80;;;;;;;13.87;79.96;102198.28;5016169;28;100819;-34
2022/05/20 05:19:44;;;;;;;38.75;14.10;;;;;;;13.96;79.25;102196.91;5016076;28;96879;-34
2022/05/20 05:22:10;;;;;;;37.10;14.77;;;;;;;13.94;79.35;102186.09;5015967;28;96829;-34
2022/05/20 05:24:37;;;;;;;43.25;14.52;;;;;;;14.02;79.51;102189.28;5015992;28;101099;-33
2022/05/20 05:27:04;;;;;;;42.47;14.77;;;;;;;14.05;79.58;102184.63;5016014;28;101057;-34
2022/05/20 05:29:30;;;;;;;33.58;13.52;;;;;;;14.12;78.88;102184.19;4999700;28;96788;-33
2022/05/20 05:31:57;;;;;;;37.00;15.32;;;;;;;14.17;80.91;102193.00;5000004;28;96876;-34
2022/05/20 05:34:22;;;;;;;41.22;13.95;;;;;;;14.18;79.23;102197.50;5015853;28;101202;-34
2022/05/20 05:36:48;;;;;;;38.10;14.00;;;;;;;14.30;78.58;102185.03;5017210;28;97246;-33
2022/05/20 05:39:13;;;;;;;36.83;14.00;;;;;;;14.42;78.17;102189.81;5017057;28;96747;-34
2022/05/20 05:41:38;;;;;;;37.60;15.73;;;;;;;14.54;78.52;102187.34;5016597;28;117392;-34
2022/05/20 05:44:04;;;;;;;38.88;14.93;;;;;;;14.60;78.42;102176.13;5016922;28;98807;-34
2022/05/20 05:46:30;;;;;;;45.95;15.25;;;;;;;14.62;78.49;102175.06;5017124;28;97466;-33
2022/05/20 05:48:56;;;;;;;40.50;14.88;;;;;;;14.63;78.86;102184.09;5017603;28;96496;-34
2022/05/20 05:51:22;;;;;;;43.00;15.70;;;;;;;14.63;78.47;102175.94;5016523;28;96658;-34
2022/05/20 05:53:47;;;;;;;40.70;15.80;;;;;;;14.72;79.37;102185.44;5015528;28;100696;-33
2022/05/20 05:56:13;;;;;;;35.03;15.50;;;;;;;14.76;78.03;102182.44;5016581;28;119358;-33
2022/05/20 05:58:38;;;;;;;41.33;15.48;;;;;;;14.76;78.72;102163.34;5016719;28;96699;-34
2022/05/20 06:01:05;;;;;;;45.90;15.43;;;;;;;14.76;78.25;102179.72;5017381;28;96736;-33
2022/05/20 06:03:31;;;;;;;38.75;14.82;;;;;;;14.74;78.13;102184.38;5016155;28;99011;-33
2022/05/20 06:05:56;;;;;;;39.35;14.30;;;;;;;14.87;78.61;102187.25;5016580;28;97973;-34
2022/05/20 06:08:22;;;;;;;39.10;14.63;;;;;;;14.91;77.87;102169.75;5016982;28;96624;-34
2022/05/20 06:10:48;;;;;;;36.63;13.98;;;;;;;14.92;77.72;102170.63;5016765;28;96819;-33
2022/05/20 06:13:20;;;;;;;39.72;13.65;;;;;;;15.15;77.41;102180.19;5016178;28;97476;-34
2022/05/20 06:15:45;;;;;;;41.35;14.35;;;;;;;15.22;77.59;102152.44;5013951;28;100846;-34
2022/05/20 06:18:10;;;;;;;36.83;14.68;;;;;;;15.43;76.39;102165.75;5021139;28;117195;-34
2022/05/20 06:20:36;;;;;;;39.15;13.88;;;;;;;15.66;76.71;102178.91;5036344;28;115426;-34
2022/05/20 06:23:03;;;;;;;35.85;14.60;;;;;;;15.83;76.26;102179.75;5036177;28;98996;-34
2022/05/20 06:25:29;;;;;;;37.22;15.45;;;;;;;15.89;75.40;102160.22;5036434;28;99610;-33
2022/05/20 06:28:02;;;;;;;33.45;13.10;;;;;;;16.11;74.91;102174.28;5036369;28;96653;-34
2022/05/20 06:30:28;;;;;;;34.00;13.88;;;;;;;16.19;74.53;102157.38;5018593;28;96742;-34
2022/05/20 06:32:53;;;;;;;34.05;12.73;;;;;;;16.21;74.34;102171.84;5036084;28;109120;-34
2022/05/20 06:40:49;;;;;;;29.42;12.27;;;;;;;16.15;74.10;102147.63;5036944;28;96469;-34
2022/05/20 06:43:20;;;;;;;31.73;11.32;;;;;;;16.16;74.19;102159.41;5017857;28;101516;-34
2022/05/20 06:45:47;;;;;;;24.17;9.98;;;;;;;16.10;73.78;102147.03;5001842;28;100688;-34
2022/05/20 06:48:13;;;;;;;29.10;11.13;;;;;;;16.16;73.45;102146.66;5007213;28;96745;-33
2022/05/20 06:50:39;;;;;;;19.00;8.07;;;;;;;16.19;73.22;102167.44;5014906;28;96860;-33
2022/05/20 06:53:06;;;;;;;30.25;10.93;;;;;;;16.13;73.55;102155.91;5014174;28;100978;-33
2022/05/20 06:55:31;;;;;;;24.83;9.32;;;;;;;16.21;73.33;102152.69;5014586;28;101299;-33
2022/05/20 06:57:58;;;;;;;22.50;8.07;;;;;;;16.23;72.89;102134.34;5031309;28;96688;-33
2022/05/20 07:00:23;;;;;;;27.92;9.52;;;;;;;16.39;72.34;102136.94;5016408;28;96829;-33
2022/05/20 07:02:48;;;;;;;23.52;8.95;;;;;;;16.57;72.30;102123.91;4997798;28;100816;-33
2022/05/20 07:05:15;;;;;;;21.50;8.77;;;;;;;16.86;71.25;102134.81;5015500;28;117014;-33
2022/05/20 07:07:40;;;;;;;21.88;10.13;;;;;;;17.07;70.75;102143.41;5014801;28;118461;-33
2022/05/20 07:10:08;;;;;;;25.95;9.43;;;;;;;17.22;70.34;102136.88;5016720;28;96695;-33
2022/05/20 07:12:34;;;;;;;25.13;9.00;;;;;;;17.36;69.81;102146.88;5030614;28;102622;-33
2022/05/20 07:15:00;;;;;;;17.70;6.70;;;;;;;17.29;69.30;102123.63;5015665;28;99129;-33
2022/05/20 07:17:27;;;;;;;18.08;6.35;;;;;;;17.40;68.21;102127.38;5015520;28;96772;-33
2022/05/20 07:19:52;;;;;;;19.85;7.60;;;;;;;17.62;68.75;102123.13;5014707;28;96877;-33
2022/05/20 07:22:17;;;;;;;22.55;7.88;;;;;;;17.78;67.02;102132.03;5015586;28;97326;-33
2022/05/20 07:24:45;;;;;;;22.85;7.68;;;;;;;17.91;68.01;102122.94;5014475;28;127313;-33
2022/05/20 07:27:11;;;;;;;20.83;7.72;;;;;;;18.01;67.78;102111.19;5014240;28;96726;-33
2022/05/20 07:29:37;;;;;;;17.30;7.40;;;;;;;18.06;66.96;102113.59;4997769;28;96830;-34
2022/05/20 07:32:02;;;;;;;18.45;7.75;;;;;;;18.00;67.39;102103.97;5015343;28;99340;-33
2022/05/20 07:34:28;;;;;;;21.40;6.47;;;;;;;17.83;66.80;102086.00;5016297;28;97329;-34
2022/05/20 07:36:53;;;;;;;16.75;6.93;;;;;;;17.80;67.47;102093.50;5014777;28;116760;-33
2022/05/20 07:39:19;;;;;;;15.30;6.68;;;;;;;17.78;67.59;102088.16;5016125;28;96663;-34
2022/05/20 07:41:44;;;;;;;16.20;6.43;;;;;;;17.75;67.73;102084.75;5014224;28;111702;-34
2022/05/20 07:44:27;;;;;;;14.10;6.07;;;;;;;17.74;67.63;102086.63;5014913;28;109430;-34
2022/05/20 07:46:53;;;;;;;17.67;6.63;;;;;;;17.69;67.45;102074.25;5015235;28;111779;-34
2022/05/20 07:49:18;;;;;;;15.95;6.25;;;;;;;17.52;66.55;102073.59;5015338;28;96908;-34
2022/05/20 07:51:48;;;;;;;15.50;5.80;;;;;;;17.55;66.33;102061.53;5014975;28;99363;-34
2022/05/20 07:54:19;;;;;;;19.60;6.55;;;;;;;17.68;66.85;102078.84;4996185;28;101296;-34
2022/05/20 07:56:49;;;;;;;;;;;;;;;17.81;66.50;102074.25;4997806;28;96628;-34
2022/05/20 07:59:30;;;;;;;12.18;5.47;;;;;;;17.95;66.43;102073.25;5014431;28;96902;-34
2022/05/20 08:01:56;;;;;;;19.25;6.32;;;;;;;18.04;66.13;102049.75;5013707;28;100806;-34
2022/05/20 08:07:15;;;;;;;15.13;5.38;;;;;;;18.33;64.36;102058.56;5015260;28;96747;-34
2022/05/20 08:09:41;;;;;;;11.85;4.22;;;;;;;18.40;64.04;102057.13;4997173;28;97128;-34
2022/05/20 08:12:07;;;;;;;12.93;5.55;;;;;;;18.50;63.90;102053.69;4996517;28;101099;-34
2022/05/20 08:14:32;;;;;;;16.15;4.93;;;;;;;18.61;63.32;102062.81;4996708;28;101099;-34
2022/05/20 08:17:00;;;;;;;13.00;4.95;;;;;;;18.70;64.33;102060.38;5015076;28;96485;-34
2022/05/20 08:19:26;;;;;;;15.77;4.78;;;;;;;18.71;62.95;102052.03;4996625;28;97012;-34
2022/05/20 08:21:51;;;;;;;16.23;5.10;;;;;;;18.78;62.46;102033.25;5014659;28;97623;-34
2022/05/20 08:24:16;;;;;;;10.65;4.22;;;;;;;18.77;61.87;102031.50;5015031;28;98924;-34
2022/05/20 08:26:42;;;;;;;12.63;4.53;;;;;;;18.82;62.26;102032.03;5014861;28;96513;-34
2022/05/20 08:29:09;;;;;;;11.90;4.53;;;;;;;19.02;59.21;102039.59;5014803;28;96856;-34
2022/05/20 08:31:34;;;;;;;8.15;3.85;;;;;;;18.95;60.88;102035.56;5011458;28;100862;-34
2022/05/20 08:34:00;;;;;;;10.38;4.05;;;;;;;18.96;61.94;102025.47;5014669;28;97843;-34
2022/05/20 08:36:26;;;;;;;13.27;4.07;;;;;;;18.98;61.83;102020.72;5015010;28;96513;-34
2022/05/20 08:38:51;;;;;;;7.45;3.33;;;;;;;19.02;61.52;101990.16;5014702;28;96862;-34
2022/05/20 08:41:25;;;;;;;8.50;3.88;;;;;;;19.09;60.07;101985.94;5014547;28;97383;-34
2022/05/20 08:43:50;;;;;;;13.13;4.38;;;;;;;19.14;60.79;101982.81;4996370;28;101162;-33
2022/05/20 08:46:19;;;;;;;15.75;4.72;;;;;;;19.08;61.54;101964.94;5014432;28;96577;-34
2022/05/20 08:48:46;;;;;;;9.00;4.15;;;;;;;19.12;60.08;101957.34;5015001;28;96809;-34
2022/05/20 08:51:11;;;;;;;14.90;4.93;;;;;;;19.06;60.42;101950.44;5014347;28;97943;-34
2022/05/20 08:53:43;;;;;;;13.07;4.47;;;;;;;19.08;60.19;101937.47;5014144;28;99202;-34
2022/05/20 08:56:15;;;;;;;16.00;5.28;;;;;;;19.05;60.55;101929.47;4996070;28;96601;-34
2022/05/20 08:58:49;;;;;;;13.13;4.70;;;;;;;19.09;60.69;101941.97;5014523;28;96660;-34
2022/05/20 09:01:29;;;;;;;8.38;4.43;;;;;;;19.06;60.01;101935.84;4996178;28;101073;-34
2022/05/20 09:03:55;;;;;;;12.60;4.85;;;;;;;19.00;59.88;101933.59;4996162;28;100834;-34
2022/05/20 09:06:20;;;;;;;12.63;4.65;;;;;;;18.97;61.43;101936.56;5013933;28;109587;-34
2022/05/20 09:09:03;;;;;;;13.00;4.25;;;;;;;18.81;60.20;101923.22;5013193;28;96902;-34
2022/05/20 09:11:29;;;;;;;13.85;4.35;;;;;;;18.75;60.66;101934.63;5012621;28;100977;-34
2022/05/20 09:17:07;;;;;;;9.53;4.47;;;;;;;18.84;61.16;101936.69;5013700;28;96776;-34
2022/05/20 09:19:32;;;;;;;15.23;4.18;;;;;;;18.88;61.03;101929.97;4995559;28;96879;-34
2022/05/20 09:22:13;;;;;;;10.18;4.40;;;;;;;18.95;61.18;101931.22;5012965;28;122469;-34
2022/05/20 09:24:42;;;;;;;8.93;3.97;;;;;;;19.05;61.39;101926.75;4995969;28;100769;-34
2022/05/20 09:27:14;;;;;;;8.18;4.60;;;;;;;19.10;60.03;101926.38;4996194;28;96644;-34
2022/05/20 09:29:53;;;;;;;9.35;4.75;;;;;;;19.15;60.34;101915.00;5014234;28;96660;-34
2022/05/20 09:32:34;;;;;;;9.10;4.40;;;;;;;19.23;60.37;101907.88;4995798;28;101296;-34
2022/05/20 09:35:22;;;;;;;11.60;4.65;;;;;;;19.31;60.16;101904.53;4995723;28;100725;-34
2022/05/20 09:37:49;;;;;;;10.32;4.88;;;;;;;19.22;60.31;101886.91;4979431;28;96541;-34
2022/05/20 09:40:37;;;;;;;13.05;4.97;;;;;;;19.26;60.29;101890.31;4996327;28;96833;-34
2022/05/20 09:43:10;;;;;;;10.05;5.22;;;;;;;19.22;60.48;101875.91;5015862;28;99399;-34
2022/05/20 09:45:47;;;;;;;16.02;5.32;;;;;;;19.23;60.90;101863.06;4998999;28;100790;-34
2022/05/20 09:48:22;;;;;;;8.70;4.68;;;;;;;19.20;60.89;101855.06;4998800;28;96599;-34
2022/05/20 09:51:12;;;;;;;12.13;4.75;;;;;;;19.19;60.21;101845.09;4999184;28;96754;-34
2022/05/20 09:53:40;;;;;;;10.48;5.35;;;;;;;19.08;60.39;101833.09;4998939;28;99439;-34
2022/05/20 09:56:28;;;;;;;14.13;5.22;;;;;;;19.10;59.92;101830.25;4998711;28;102014;-34
2022/05/20 09:59:42;;;;;;;14.85;5.45;;;;;;;19.16;60.46;101829.72;4999301;28;96647;-34
2022/05/20 10:02:37;;;;;;;10.05;4.65;;;;;;;19.13;58.64;101816.25;5003188;28;97683;-34
2022/05/20 10:05:27;;;;;;;12.25;5.30;;;;;;;19.23;60.75;101816.34;4999026;28;101031;-34
2022/05/20 10:08:19;;;;;;;10.50;4.85;;;;;;;19.29;59.95;101824.97;4999065;28;101125;-34
2022/05/20 10:10:55;;;;;;;12.18;5.57;;;;;;;19.36;60.15;101805.25;5017017;28;96753;-34
2022/05/20 10:13:35;;;;;;;11.82;4.88;;;;;;;19.42;59.72;101790.97;4999177;28;96808;-34
2022/05/20 10:16:11;;;;;;;13.27;4.78;;;;;;;19.47;59.14;101783.19;5016198;28;108044;-34
2022/05/20 10:18:50;;;;;;;12.55;5.20;;;;;;;19.50;59.14;101761.84;5016155;28;99335;-34
2022/05/20 10:21:38;;;;;;;10.65;4.45;;;;;;;19.50;58.16;101728.00;4998927;28;96501;-34
2022/05/20 10:24:27;;;;;;;11.55;5.20;;;;;;;19.74;58.59;101738.81;4998760;28;96706;-34
2022/05/20 10:27:10;;;;;;;12.60;5.97;;;;;;;19.70;57.79;101724.44;4987557;28;97517;-34
2022/05/20 10:32:36;;;;;;;13.13;5.28;;;;;;;19.75;57.97;101720.41;5017118;28;96662;-34
2022/05/20 10:35:07;;;;;;;12.70;5.65;;;;;;;19.73;58.64;101691.19;5016953;28;96888;-34
2022/05/20 10:38:17;;;;;;;10.48;5.20;;;;;;;19.77;58.29;101691.78;4998209;28;102853;-34
2022/05/20 10:40:53;;;;;;;14.40;5.30;;;;;;;19.77;57.88;101686.28;5016576;28;97934;-34
2022/05/20 10:43:25;;;;;;;9.95;5.72;;;;;;;19.65;57.67;101677.19;4998092;28;96740;-34
2022/05/20 10:49:18;;;;;;;13.27;5.78;;;;;;;19.46;57.40;101657.81;5016754;28;97079;-34
2022/05/20 10:52:05;;;;;;;14.67;4.80;;;;;;;19.42;57.33;101653.56;5016215;28;99274;-34
2022/05/20 10:54:48;;;;;;;9.70;5.05;;;;;;;19.37;57.56;101636.63;4997333;28;97254;-34
2022/05/20 10:57:16;;;;;;;13.38;6.00;;;;;;;19.37;58.43;101629.25;4998393;28;96692;-34
2022/05/20 10:59:54;;;;;;;11.25;5.15;;;;;;;19.37;58.54;101614.63;5015940;28;98043;-34
2022/05/20 11:03:14;;;;;;;10.88;5.43;;;;;;;19.33;58.47;101596.66;5016228;28;99135;-34
2022/05/20 11:06:21;;;;;;;11.35;4.72;;;;;;;19.26;58.70;101571.63;4955095;28;96570;-34
2022/05/20 11:09:06;;;;;;;9.80;4.90;;;;;;;19.38;57.80;101564.16;5016509;28;96665;-34
2022/05/20 11:11:59;;;;;;;11.10;5.13;;;;;;;19.56;57.82;101565.31;4997015;28;101033;-34
2022/05/20 11:15:03;;;;;;;8.90;5.03;;;;;;;19.79;57.23;101562.44;4991136;28;100843;-34
2022/05/20 11:17:47;;;;;;;12.57;4.97;;;;;;;19.91;57.30;101558.59;5016070;28;96684;-34
2022/05/20 11:20:52;;;;;;;11.80;4.90;;;;;;;19.79;57.02;101544.06;5016048;28;96766;-34
2022/05/20 11:23:54;;;;;;;17.02;6.30;;;;;;;19.80;56.85;101554.03;4997337;28;100822;-34
2022/05/20 11:26:34;;;;;;;;;;;;;;;19.64;56.77;101548.13;5015865;28;99130;-34
2022/05/20 11:29:12;;;;;;;12.88;6.40;;;;;;;19.49;57.64;101528.38;5016292;28;96550;-34
2022/05/20 11:31:58;;;;;;;13.27;5.85;;;;;;;19.45;58.38;101526.91;5015036;28;96708;-34
2022/05/20 11:34:50;;;;;;;16.80;6.65;;;;;;;19.40;58.79;101529.19;5014210;28;100883;-34
2022/05/20 11:37:28;;;;;;;12.45;5.65;;;;;;;19.39;59.47;101511.84;5015913;28;97426;-34
2022/05/20 11:40:08;;;;;;;16.80;6.70;;;;;;;19.29;59.28;101502.69;5013831;28;97659;-34
2022/05/20 11:42:34;;;;;;;18.73;6.07;;;;;;;19.23;59.86;101481.22;4997608;28;96889;-34
2022/05/20 11:45:23;;;;;;;15.02;6.70;;;;;;;19.15;59.67;101475.56;5015189;28;99289;-34
2022/05/20 11:48:02;;;;;;;13.35;6.50;;;;;;;19.10;60.66;101476.81;5012974;28;101198;-34
2022/05/20 11:50:30;;;;;;;11.88;6.13;;;;;;;19.08;60.55;101467.84;5014253;28;96550;-34
2022/05/20 11:53:18;;;;;;;15.32;6.57;;;;;;;19.04;61.23;101479.22;5015607;28;96886;-34
2022/05/20 11:55:51;;;;;;;13.60;6.15;;;;;;;18.95;61.17;101500.13;4996811;28;100912;-34
2022/05/20 11:58:33;;;;;;;17.50;7.18;;;;;;;18.94;62.16;101524.97;5015489;28;98538;-34
2022/05/20 12:01:00;;;;;;;11.88;5.95;;;;;;;18.84;62.77;101561.44;5015328;28;96503;-34
2022/05/20 12:03:30;;;;;;;15.57;6.03;;;;;;;18.79;63.25;101588.41;5030595;28;96801;-34